sensor_id;sensor_type;location;lat;lon;timestamp;pressure;altitude;pressure_sealevel;temperature;humidity
61628;BME280;55193;52.102;5.242;2022-10-24T00:01:24;100255.0;;;17.52;94.23
61628;BME280;55193;52.102;5.242;2022-10-24T00:03:00;100255.0;;;17.62;93.77
61628;BME280;55193;52.102;5.242;2022-10-24T00:06:18;100255.0;;;17.61;93.75
61628;BME280;55193;52.102;5.242;2022-10-24T00:07:54;100259.0;;;17.66;93.49
61628;BME280;55193;52.102;5.242;2022-10-24T00:09:31;100253.0;;;17.68;93.41
61628;BME280;55193;52.102;5.242;2022-10-24T00:12:47;100248.0;;;17.7;93.5
61628;BME280;55193;52.102;5.242;2022-10-24T00:14:23;100250.0;;;17.71;93.14
61628;BME280;55193;52.102;5.242;2022-10-24T00:16:00;100246.0;;;17.7;93.03
61628;BME280;55193;52.102;5.242;2022-10-24T00:17:37;100240.0;;;17.73;92.89
61628;BME280;55193;52.102;5.242;2022-10-24T00:20:49;100239.0;;;17.72;92.76
61628;BME280;55193;52.102;5.242;2022-10-24T00:22:26;100241.0;;;17.7;92.75
61628;BME280;55193;52.102;5.242;2022-10-24T00:24:04;100240.0;;;17.7;92.88
61628;BME280;55193;52.102;5.242;2022-10-24T00:27:16;100240.0;;;17.66;92.74
61628;BME280;55193;52.102;5.242;2022-10-24T00:28:53;100244.0;;;17.7;92.6
61628;BME280;55193;52.102;5.242;2022-10-24T00:30:29;100238.0;;;17.7;92.23
61628;BME280;55193;52.102;5.242;2022-10-24T00:33:43;100238.0;;;17.7;92.04
61628;BME280;55193;52.102;5.242;2022-10-24T00:35:19;100235.0;;;17.7;91.81
61628;BME280;55193;52.102;5.242;2022-10-24T00:36:55;100234.0;;;17.7;91.86
61628;BME280;55193;52.102;5.242;2022-10-24T00:38:31;100233.0;;;17.71;91.69
61628;BME280;55193;52.102;5.242;2022-10-24T00:41:50;100227.0;;;17.72;91.29
61628;BME280;55193;52.102;5.242;2022-10-24T00:43:26;100232.0;;;17.77;90.73
61628;BME280;55193;52.102;5.242;2022-10-24T00:45:35;100230.0;;;17.75;90.29
61628;BME280;55193;52.102;5.242;2022-10-24T00:47:16;100220.0;;;17.77;90.31
61628;BME280;55193;52.102;5.242;2022-10-24T00:48:54;100221.0;;;17.77;90.16
61628;BME280;55193;52.102;5.242;2022-10-24T00:52:08;100224.0;;;17.78;89.76
61628;BME280;55193;52.102;5.242;2022-10-24T00:53:52;100220.0;;;17.78;89.49
61628;BME280;55193;52.102;5.242;2022-10-24T00:55:34;100220.0;;;17.8;89.56
61628;BME280;55193;52.102;5.242;2022-10-24T00:58:56;100221.0;;;17.87;88.91
61628;BME280;55193;52.102;5.242;2022-10-24T01:00:34;100221.0;;;17.95;88.18
61628;BME280;55193;52.102;5.242;2022-10-24T01:02:11;100221.0;;;17.91;88.0
61628;BME280;55193;52.102;5.242;2022-10-24T01:03:47;100219.0;;;17.91;87.86
61628;BME280;55193;52.102;5.242;2022-10-24T01:07:16;100222.0;;;17.91;87.92
61628;BME280;55193;52.102;5.242;2022-10-24T01:09:05;100215.0;;;17.93;87.6
61628;BME280;55193;52.102;5.242;2022-10-24T01:10:53;100216.0;;;17.89;87.02
61628;BME280;55193;52.102;5.242;2022-10-24T01:12:45;100213.0;;;17.89;86.96
61628;BME280;55193;52.102;5.242;2022-10-24T01:14:32;100221.0;;;17.93;86.54
61628;BME280;55193;52.102;5.242;2022-10-24T01:16:20;100218.0;;;17.93;86.66
61628;BME280;55193;52.102;5.242;2022-10-24T01:20:04;100219.0;;;17.95;86.29
61628;BME280;55193;52.102;5.242;2022-10-24T01:21:51;100212.0;;;17.93;85.75
61628;BME280;55193;52.102;5.242;2022-10-24T01:23:52;100211.0;;;17.95;85.59
61628;BME280;55193;52.102;5.242;2022-10-24T01:27:40;100205.0;;;18.0;85.15
61628;BME280;55193;52.102;5.242;2022-10-24T01:29:38;100205.0;;;18.02;84.54
61628;BME280;55193;52.102;5.242;2022-10-24T01:32:04;100207.0;;;18.02;84.55
61628;BME280;55193;52.102;5.242;2022-10-24T01:33:52;100211.0;;;18.07;84.01
61628;BME280;55193;52.102;5.242;2022-10-24T01:35:38;100209.0;;;18.09;83.77
61628;BME280;55193;52.102;5.242;2022-10-24T01:37:20;100205.0;;;18.03;83.51
61628;BME280;55193;52.102;5.242;2022-10-24T01:40:48;100198.0;;;17.98;83.69
61628;BME280;55193;52.102;5.242;2022-10-24T01:42:29;100198.0;;;18.02;83.83
61628;BME280;55193;52.102;5.242;2022-10-24T01:44:10;100190.0;;;18.02;83.87
61628;BME280;55193;52.102;5.242;2022-10-24T01:45:54;100193.0;;;18.02;83.08
61628;BME280;55193;52.102;5.242;2022-10-24T01:47:38;100190.0;;;18.02;83.29
61628;BME280;55193;52.102;5.242;2022-10-24T01:51:02;100186.0;;;17.97;83.24
61628;BME280;55193;52.102;5.242;2022-10-24T01:52:42;100186.0;;;18.0;82.72
61628;BME280;55193;52.102;5.242;2022-10-24T01:54:20;100182.0;;;18.02;82.15
61628;BME280;55193;52.102;5.242;2022-10-24T01:55:58;100180.0;;;18.05;82.24
61628;BME280;55193;52.102;5.242;2022-10-24T01:59:39;100175.0;;;18.0;82.07
61628;BME280;55193;52.102;5.242;2022-10-24T02:01:21;100173.0;;;18.07;82.03
61628;BME280;55193;52.102;5.242;2022-10-24T02:03:00;100168.0;;;18.06;81.95
61628;BME280;55193;52.102;5.242;2022-10-24T02:04:44;100169.0;;;18.02;81.7
61628;BME280;55193;52.102;5.242;2022-10-24T02:06:26;100168.0;;;18.03;82.1
61628;BME280;55193;52.102;5.242;2022-10-24T02:09:53;100167.0;;;18.03;81.12
61628;BME280;55193;52.102;5.242;2022-10-24T02:11:34;100166.0;;;18.02;81.37
61628;BME280;55193;52.102;5.242;2022-10-24T02:13:16;100156.0;;;17.97;81.19
61628;BME280;55193;52.102;5.242;2022-10-24T02:14:58;100155.0;;;17.97;81.66
61628;BME280;55193;52.102;5.242;2022-10-24T02:18:15;100159.0;;;17.96;80.69
61628;BME280;55193;52.102;5.242;2022-10-24T02:19:51;100162.0;;;18.0;80.83
61628;BME280;55193;52.102;5.242;2022-10-24T02:21:31;100162.0;;;17.98;80.27
61628;BME280;55193;52.102;5.242;2022-10-24T02:23:18;100163.0;;;17.98;80.33
61628;BME280;55193;52.102;5.242;2022-10-24T02:26:45;100152.0;;;17.93;79.91
61628;BME280;55193;52.102;5.242;2022-10-24T02:28:24;100152.0;;;17.97;79.83
61628;BME280;55193;52.102;5.242;2022-10-24T02:30:07;100159.0;;;17.98;79.33
61628;BME280;55193;52.102;5.242;2022-10-24T02:31:49;100159.0;;;17.89;79.19
61628;BME280;55193;52.102;5.242;2022-10-24T02:35:08;100152.0;;;17.91;79.47
61628;BME280;55193;52.102;5.242;2022-10-24T02:36:48;100159.0;;;17.91;79.16
61628;BME280;55193;52.102;5.242;2022-10-24T02:38:30;100156.0;;;17.87;79.55
61628;BME280;55193;52.102;5.242;2022-10-24T02:40:10;100162.0;;;17.87;79.63
61628;BME280;55193;52.102;5.242;2022-10-24T02:43:29;100160.0;;;17.79;79.72
61628;BME280;55193;52.102;5.242;2022-10-24T02:45:10;100155.0;;;17.8;79.58
61628;BME280;55193;52.102;5.242;2022-10-24T02:46:50;100162.0;;;17.78;79.3
61628;BME280;55193;52.102;5.242;2022-10-24T02:48:31;100160.0;;;17.75;79.16
61628;BME280;55193;52.102;5.242;2022-10-24T02:51:48;100155.0;;;17.8;79.25
61628;BME280;55193;52.102;5.242;2022-10-24T02:53:27;100155.0;;;17.75;78.94
61628;BME280;55193;52.102;5.242;2022-10-24T02:55:04;100158.0;;;17.7;78.83
61628;BME280;55193;52.102;5.242;2022-10-24T02:56:45;100159.0;;;17.78;78.69
61628;BME280;55193;52.102;5.242;2022-10-24T03:00:00;100164.0;;;17.75;78.56
61628;BME280;55193;52.102;5.242;2022-10-24T03:01:36;100157.0;;;17.77;78.27
61628;BME280;55193;52.102;5.242;2022-10-24T03:03:12;100162.0;;;17.72;78.16
61628;BME280;55193;52.102;5.242;2022-10-24T03:06:26;100164.0;;;17.7;78.62
61628;BME280;55193;52.102;5.242;2022-10-24T03:08:02;100165.0;;;17.73;77.64
61628;BME280;55193;52.102;5.242;2022-10-24T03:09:39;100159.0;;;17.66;78.22
61628;BME280;55193;52.102;5.242;2022-10-24T03:11:15;100159.0;;;17.71;78.49
61628;BME280;55193;52.102;5.242;2022-10-24T03:14:29;100162.0;;;17.71;77.86
61628;BME280;55193;52.102;5.242;2022-10-24T03:16:06;100157.0;;;17.68;77.87
61628;BME280;55193;52.102;5.242;2022-10-24T03:17:42;100158.0;;;17.66;77.91
61628;BME280;55193;52.102;5.242;2022-10-24T03:20:55;100159.0;;;17.7;78.38
61628;BME280;55193;52.102;5.242;2022-10-24T03:22:31;100155.0;;;17.66;78.08
61628;BME280;55193;52.102;5.242;2022-10-24T03:24:07;100162.0;;;17.72;77.36
61628;BME280;55193;52.102;5.242;2022-10-24T03:27:21;100159.0;;;17.61;77.78
61628;BME280;55193;52.102;5.242;2022-10-24T03:28:57;100158.0;;;17.64;77.12
61628;BME280;55193;52.102;5.242;2022-10-24T03:30:33;100158.0;;;17.66;77.41
61628;BME280;55193;52.102;5.242;2022-10-24T03:32:09;100162.0;;;17.61;77.58
61628;BME280;55193;52.102;5.242;2022-10-24T03:35:21;100162.0;;;17.59;77.55
61628;BME280;55193;52.102;5.242;2022-10-24T03:36:57;100166.0;;;17.63;77.8
61628;BME280;55193;52.102;5.242;2022-10-24T03:38:35;100158.0;;;17.66;78.09
61628;BME280;55193;52.102;5.242;2022-10-24T03:41:47;100158.0;;;17.59;77.19
61628;BME280;55193;52.102;5.242;2022-10-24T03:43:23;100170.0;;;17.59;77.75
61628;BME280;55193;52.102;5.242;2022-10-24T03:44:59;100167.0;;;17.54;77.98
61628;BME280;55193;52.102;5.242;2022-10-24T03:48:12;100168.0;;;17.57;77.63
61628;BME280;55193;52.102;5.242;2022-10-24T03:49:49;100164.0;;;17.57;78.03
61628;BME280;55193;52.102;5.242;2022-10-24T03:51:25;100165.0;;;17.5;77.58
61628;BME280;55193;52.102;5.242;2022-10-24T03:53:02;100168.0;;;17.48;77.41
61628;BME280;55193;52.102;5.242;2022-10-24T03:56:14;100166.0;;;17.41;77.36
61628;BME280;55193;52.102;5.242;2022-10-24T03:57:51;100161.0;;;17.45;76.97
61628;BME280;55193;52.102;5.242;2022-10-24T03:59:27;100164.0;;;17.48;76.94
61628;BME280;55193;52.102;5.242;2022-10-24T04:02:39;100163.0;;;17.46;76.67
61628;BME280;55193;52.102;5.242;2022-10-24T04:04:15;100170.0;;;17.43;77.05
61628;BME280;55193;52.102;5.242;2022-10-24T04:05:52;100167.0;;;17.46;76.55
61628;BME280;55193;52.102;5.242;2022-10-24T04:09:05;100161.0;;;17.43;76.19
61628;BME280;55193;52.102;5.242;2022-10-24T04:10:42;100165.0;;;17.43;76.48
61628;BME280;55193;52.102;5.242;2022-10-24T04:12:20;100166.0;;;17.48;75.75
61628;BME280;55193;52.102;5.242;2022-10-24T04:13:56;100160.0;;;17.48;76.05
61628;BME280;55193;52.102;5.242;2022-10-24T04:17:09;100158.0;;;17.43;76.95
61628;BME280;55193;52.102;5.242;2022-10-24T04:18:46;100157.0;;;17.45;76.42
61628;BME280;55193;52.102;5.242;2022-10-24T04:20:22;100161.0;;;17.43;76.86
61628;BME280;55193;52.102;5.242;2022-10-24T04:23:40;100163.0;;;17.43;76.74
61628;BME280;55193;52.102;5.242;2022-10-24T04:25:16;100163.0;;;17.45;76.62
61628;BME280;55193;52.102;5.242;2022-10-24T04:26:52;100160.0;;;17.43;76.03
61628;BME280;55193;52.102;5.242;2022-10-24T04:30:06;100160.0;;;17.46;76.22
61628;BME280;55193;52.102;5.242;2022-10-24T04:31:42;100162.0;;;17.43;76.22
61628;BME280;55193;52.102;5.242;2022-10-24T04:33:18;100155.0;;;17.45;76.22
61628;BME280;55193;52.102;5.242;2022-10-24T04:34:54;100161.0;;;17.52;76.02
61628;BME280;55193;52.102;5.242;2022-10-24T04:38:08;100156.0;;;17.5;75.94
61628;BME280;55193;52.102;5.242;2022-10-24T04:39:44;100160.0;;;17.59;75.97
61628;BME280;55193;52.102;5.242;2022-10-24T04:41:20;100157.0;;;17.52;75.63
61628;BME280;55193;52.102;5.242;2022-10-24T04:44:32;100155.0;;;17.61;76.06
61628;BME280;55193;52.102;5.242;2022-10-24T04:46:08;100160.0;;;17.59;76.25
61628;BME280;55193;52.102;5.242;2022-10-24T04:47:44;100157.0;;;17.61;75.95
61628;BME280;55193;52.102;5.242;2022-10-24T04:50:57;100152.0;;;17.63;75.8
61628;BME280;55193;52.102;5.242;2022-10-24T04:52:34;100155.0;;;17.66;76.23
61628;BME280;55193;52.102;5.242;2022-10-24T04:54:10;100152.0;;;17.7;75.8
61628;BME280;55193;52.102;5.242;2022-10-24T04:57:22;100148.0;;;17.7;75.86
61628;BME280;55193;52.102;5.242;2022-10-24T04:58:59;100146.0;;;17.73;75.87
61628;BME280;55193;52.102;5.242;2022-10-24T05:00:35;100146.0;;;17.71;75.61
61628;BME280;55193;52.102;5.242;2022-10-24T05:02:11;100150.0;;;17.68;76.16
61628;BME280;55193;52.102;5.242;2022-10-24T05:05:23;100156.0;;;17.71;76.36
61628;BME280;55193;52.102;5.242;2022-10-24T05:07:00;100149.0;;;17.7;76.3
61628;BME280;55193;52.102;5.242;2022-10-24T05:08:36;100147.0;;;17.77;75.92
61628;BME280;55193;52.102;5.242;2022-10-24T05:11:53;100147.0;;;17.72;75.72
61628;BME280;55193;52.102;5.242;2022-10-24T05:13:29;100151.0;;;17.77;76.52
61628;BME280;55193;52.102;5.242;2022-10-24T05:15:06;100151.0;;;17.7;75.99
61628;BME280;55193;52.102;5.242;2022-10-24T05:16:42;100149.0;;;17.73;76.47
61628;BME280;55193;52.102;5.242;2022-10-24T05:19:55;100149.0;;;17.77;76.42
61628;BME280;55193;52.102;5.242;2022-10-24T05:21:32;100158.0;;;17.73;76.3
61628;BME280;55193;52.102;5.242;2022-10-24T05:23:08;100155.0;;;17.63;76.66
61628;BME280;55193;52.102;5.242;2022-10-24T05:26:21;100158.0;;;17.7;76.25
61628;BME280;55193;52.102;5.242;2022-10-24T05:27:57;100153.0;;;17.66;76.5
61628;BME280;55193;52.102;5.242;2022-10-24T05:29:34;100153.0;;;17.7;76.69
61628;BME280;55193;52.102;5.242;2022-10-24T05:32:46;100157.0;;;17.73;76.23
61628;BME280;55193;52.102;5.242;2022-10-24T05:34:22;100155.0;;;17.73;76.28
61628;BME280;55193;52.102;5.242;2022-10-24T05:35:59;100152.0;;;17.75;76.11
61628;BME280;55193;52.102;5.242;2022-10-24T05:39:13;100151.0;;;17.75;76.02
61628;BME280;55193;52.102;5.242;2022-10-24T05:40:50;100153.0;;;17.77;76.66
61628;BME280;55193;52.102;5.242;2022-10-24T05:42:26;100153.0;;;17.75;76.75
61628;BME280;55193;52.102;5.242;2022-10-24T05:44:02;100155.0;;;17.75;76.19
61628;BME280;55193;52.102;5.242;2022-10-24T05:47:14;100156.0;;;17.7;76.64
61628;BME280;55193;52.102;5.242;2022-10-24T05:48:50;100143.0;;;17.71;76.38
61628;BME280;55193;52.102;5.242;2022-10-24T05:50:29;100150.0;;;17.71;76.11
61628;BME280;55193;52.102;5.242;2022-10-24T05:53:42;100143.0;;;17.8;76.55
61628;BME280;55193;52.102;5.242;2022-10-24T05:55:18;100155.0;;;17.77;76.03
61628;BME280;55193;52.102;5.242;2022-10-24T05:56:54;100151.0;;;17.75;76.66
61628;BME280;55193;52.102;5.242;2022-10-24T06:00:12;100155.0;;;17.72;76.2
61628;BME280;55193;52.102;5.242;2022-10-24T06:01:49;100152.0;;;17.68;76.3
61628;BME280;55193;52.102;5.242;2022-10-24T06:03:25;100158.0;;;17.7;76.19
61628;BME280;55193;52.102;5.242;2022-10-24T06:05:04;100153.0;;;17.7;76.05
61628;BME280;55193;52.102;5.242;2022-10-24T06:08:20;100155.0;;;17.66;76.66
61628;BME280;55193;52.102;5.242;2022-10-24T06:09:56;100155.0;;;17.61;76.49
61628;BME280;55193;52.102;5.242;2022-10-24T06:11:33;100155.0;;;17.68;76.63
61628;BME280;55193;52.102;5.242;2022-10-24T06:14:45;100160.0;;;17.61;76.33
61628;BME280;55193;52.102;5.242;2022-10-24T06:16:21;100153.0;;;17.64;75.97
61628;BME280;55193;52.102;5.242;2022-10-24T06:17:57;100156.0;;;17.68;76.13
61628;BME280;55193;52.102;5.242;2022-10-24T06:19:34;100159.0;;;17.72;76.47
61628;BME280;55193;52.102;5.242;2022-10-24T06:22:48;100163.0;;;17.77;76.05
61628;BME280;55193;52.102;5.242;2022-10-24T06:24:25;100167.0;;;17.73;76.69
61628;BME280;55193;52.102;5.242;2022-10-24T06:26:06;100173.0;;;17.7;76.84
61628;BME280;55193;52.102;5.242;2022-10-24T06:29:19;100164.0;;;17.66;76.52
61628;BME280;55193;52.102;5.242;2022-10-24T06:30:55;100175.0;;;17.7;76.66
61628;BME280;55193;52.102;5.242;2022-10-24T06:32:30;100172.0;;;17.68;76.59
61628;BME280;55193;52.102;5.242;2022-10-24T06:35:44;100172.0;;;17.75;77.02
61628;BME280;55193;52.102;5.242;2022-10-24T06:37:20;100174.0;;;17.72;76.83
61628;BME280;55193;52.102;5.242;2022-10-24T06:38:56;100182.0;;;17.75;76.61
61628;BME280;55193;52.102;5.242;2022-10-24T06:40:33;100170.0;;;17.62;76.11
61628;BME280;55193;52.102;5.242;2022-10-24T06:43:49;100164.0;;;17.71;76.72
61628;BME280;55193;52.102;5.242;2022-10-24T06:45:25;100178.0;;;17.73;75.72
61628;BME280;55193;52.102;5.242;2022-10-24T06:47:01;100202.0;;;17.71;75.91
61628;BME280;55193;52.102;5.242;2022-10-24T06:50:15;100183.0;;;17.7;76.23
61628;BME280;55193;52.102;5.242;2022-10-24T06:51:52;100188.0;;;17.73;76.02
61628;BME280;55193;52.102;5.242;2022-10-24T06:53:29;100190.0;;;17.7;76.27
61628;BME280;55193;52.102;5.242;2022-10-24T06:55:06;100185.0;;;17.73;76.3
61628;BME280;55193;52.102;5.242;2022-10-24T06:58:19;100192.0;;;17.73;76.02
61628;BME280;55193;52.102;5.242;2022-10-24T06:59:54;100198.0;;;17.68;76.2
61628;BME280;55193;52.102;5.242;2022-10-24T07:01:31;100198.0;;;17.68;76.47
61628;BME280;55193;52.102;5.242;2022-10-24T07:04:49;100210.0;;;17.75;76.25
61628;BME280;55193;52.102;5.242;2022-10-24T07:06:27;100207.0;;;17.72;76.41
61628;BME280;55193;52.102;5.242;2022-10-24T07:08:04;100216.0;;;17.75;76.13
61628;BME280;55193;52.102;5.242;2022-10-24T07:11:17;100214.0;;;17.78;75.84
61628;BME280;55193;52.102;5.242;2022-10-24T07:12:54;100216.0;;;17.8;76.48
61628;BME280;55193;52.102;5.242;2022-10-24T07:14:30;100216.0;;;17.84;76.02
61628;BME280;55193;52.102;5.242;2022-10-24T07:16:07;100222.0;;;17.89;76.56
61628;BME280;55193;52.102;5.242;2022-10-24T07:19:20;100240.0;;;17.89;76.19
61628;BME280;55193;52.102;5.242;2022-10-24T07:21:00;100231.0;;;17.95;76.37
61628;BME280;55193;52.102;5.242;2022-10-24T07:22:37;100233.0;;;17.93;76.2
61628;BME280;55193;52.102;5.242;2022-10-24T07:25:49;100253.0;;;17.95;75.98
61628;BME280;55193;52.102;5.242;2022-10-24T07:27:25;100247.0;;;17.87;76.5
61628;BME280;55193;52.102;5.242;2022-10-24T07:29:02;100251.0;;;17.96;76.2
61628;BME280;55193;52.102;5.242;2022-10-24T07:30:39;100252.0;;;17.91;76.66
61628;BME280;55193;52.102;5.242;2022-10-24T07:33:52;100253.0;;;17.91;76.83
61628;BME280;55193;52.102;5.242;2022-10-24T07:35:29;100260.0;;;17.93;76.44
61628;BME280;55193;52.102;5.242;2022-10-24T07:37:06;100261.0;;;17.93;76.86
61628;BME280;55193;52.102;5.242;2022-10-24T07:40:20;100275.0;;;17.98;76.47
61628;BME280;55193;52.102;5.242;2022-10-24T07:41:56;100267.0;;;17.91;76.59
61628;BME280;55193;52.102;5.242;2022-10-24T07:43:33;100276.0;;;18.0;76.27
61628;BME280;55193;52.102;5.242;2022-10-24T07:46:47;100273.0;;;17.98;76.42
61628;BME280;55193;52.102;5.242;2022-10-24T07:48:23;100262.0;;;17.89;76.37
61628;BME280;55193;52.102;5.242;2022-10-24T07:49:59;100276.0;;;17.93;76.88
61628;BME280;55193;52.102;5.242;2022-10-24T07:51:35;100284.0;;;17.95;76.8
61628;BME280;55193;52.102;5.242;2022-10-24T07:54:52;100276.0;;;18.0;76.61
61628;BME280;55193;52.102;5.242;2022-10-24T07:56:28;100280.0;;;17.95;76.86
61628;BME280;55193;52.102;5.242;2022-10-24T07:58:05;100282.0;;;17.91;77.17
61628;BME280;55193;52.102;5.242;2022-10-24T08:01:19;100291.0;;;17.93;77.17
61628;BME280;55193;52.102;5.242;2022-10-24T08:02:56;100293.0;;;17.97;77.22
61628;BME280;55193;52.102;5.242;2022-10-24T08:04:32;100289.0;;;17.91;77.44
61628;BME280;55193;52.102;5.242;2022-10-24T08:07:47;100289.0;;;17.93;77.87
61628;BME280;55193;52.102;5.242;2022-10-24T08:09:23;100286.0;;;17.87;77.31
61628;BME280;55193;52.102;5.242;2022-10-24T08:11:00;100288.0;;;17.88;77.36
61628;BME280;55193;52.102;5.242;2022-10-24T08:12:41;100297.0;;;17.88;76.86
61628;BME280;55193;52.102;5.242;2022-10-24T08:15:53;100282.0;;;17.86;76.88
61628;BME280;55193;52.102;5.242;2022-10-24T08:17:29;100309.0;;;17.81;77.17
61628;BME280;55193;52.102;5.242;2022-10-24T08:19:05;100307.0;;;17.84;77.3
61628;BME280;55193;52.102;5.242;2022-10-24T08:22:18;100306.0;;;17.77;77.59
61628;BME280;55193;52.102;5.242;2022-10-24T08:23:54;100305.0;;;17.77;77.8
61628;BME280;55193;52.102;5.242;2022-10-24T08:25:30;100319.0;;;17.84;77.86
61628;BME280;55193;52.102;5.242;2022-10-24T08:27:06;100319.0;;;17.86;78.05
61628;BME280;55193;52.102;5.242;2022-10-24T08:30:19;100323.0;;;17.86;77.84
61628;BME280;55193;52.102;5.242;2022-10-24T08:31:55;100322.0;;;17.8;78.0
61628;BME280;55193;52.102;5.242;2022-10-24T08:33:33;100314.0;;;17.86;77.97
61628;BME280;55193;52.102;5.242;2022-10-24T08:36:52;100323.0;;;17.93;77.61
61628;BME280;55193;52.102;5.242;2022-10-24T08:38:29;100316.0;;;17.86;77.81
61628;BME280;55193;52.102;5.242;2022-10-24T08:40:08;100312.0;;;17.87;78.2
61628;BME280;55193;52.102;5.242;2022-10-24T08:41:49;100318.0;;;17.93;77.44
61628;BME280;55193;52.102;5.242;2022-10-24T08:45:02;100327.0;;;17.95;78.19
61628;BME280;55193;52.102;5.242;2022-10-24T08:46:43;100326.0;;;17.84;78.17
61628;BME280;55193;52.102;5.242;2022-10-24T08:48:24;100331.0;;;17.84;77.94
61628;BME280;55193;52.102;5.242;2022-10-24T08:50:13;100330.0;;;17.87;78.16
61628;BME280;55193;52.102;5.242;2022-10-24T08:53:33;100320.0;;;17.79;78.13
61628;BME280;55193;52.102;5.242;2022-10-24T08:55:14;100339.0;;;17.78;77.91
61628;BME280;55193;52.102;5.242;2022-10-24T08:56:55;100335.0;;;17.87;77.81
61628;BME280;55193;52.102;5.242;2022-10-24T08:58:33;100342.0;;;17.82;77.8
61628;BME280;55193;52.102;5.242;2022-10-24T09:01:58;100340.0;;;17.82;77.5
61628;BME280;55193;52.102;5.242;2022-10-24T09:03:39;100336.0;;;17.78;77.44
61628;BME280;55193;52.102;5.242;2022-10-24T09:05:21;100346.0;;;17.84;77.16
61628;BME280;55193;52.102;5.242;2022-10-24T09:06:59;100348.0;;;17.86;77.48
61628;BME280;55193;52.102;5.242;2022-10-24T09:10:34;100356.0;;;17.86;78.16
61628;BME280;55193;52.102;5.242;2022-10-24T09:12:22;100356.0;;;17.8;77.94
61628;BME280;55193;52.102;5.242;2022-10-24T09:13:59;100359.0;;;17.81;78.47
61628;BME280;55193;52.102;5.242;2022-10-24T09:15:39;100371.0;;;17.82;78.86
61628;BME280;55193;52.102;5.242;2022-10-24T09:18:56;100367.0;;;17.61;80.48
61628;BME280;55193;52.102;5.242;2022-10-24T09:20:33;100361.0;;;17.68;81.69
61628;BME280;55193;52.102;5.242;2022-10-24T09:22:10;100370.0;;;17.61;81.3
61628;BME280;55193;52.102;5.242;2022-10-24T09:23:48;100382.0;;;17.56;81.16
61628;BME280;55193;52.102;5.242;2022-10-24T09:27:14;100376.0;;;17.68;80.75
61628;BME280;55193;52.102;5.242;2022-10-24T09:28:57;100381.0;;;17.71;80.55
61628;BME280;55193;52.102;5.242;2022-10-24T09:30:36;100390.0;;;17.79;79.77
61628;BME280;55193;52.102;5.242;2022-10-24T09:32:15;100398.0;;;17.88;79.16
61628;BME280;55193;52.102;5.242;2022-10-24T09:35:36;100389.0;;;17.93;79.44
61628;BME280;55193;52.102;5.242;2022-10-24T09:37:36;100398.0;;;17.98;79.36
61628;BME280;55193;52.102;5.242;2022-10-24T09:39:29;100384.0;;;17.82;80.41
61628;BME280;55193;52.102;5.242;2022-10-24T09:41:14;100405.0;;;17.72;80.66
61628;BME280;55193;52.102;5.242;2022-10-24T09:42:56;100411.0;;;17.71;81.25
61628;BME280;55193;52.102;5.242;2022-10-24T09:44:37;100402.0;;;17.59;81.86
61628;BME280;55193;52.102;5.242;2022-10-24T09:47:55;100416.0;;;17.73;82.12
61628;BME280;55193;52.102;5.242;2022-10-24T09:49:34;100405.0;;;17.66;82.04
61628;BME280;55193;52.102;5.242;2022-10-24T09:51:18;100419.0;;;17.66;82.31
61628;BME280;55193;52.102;5.242;2022-10-24T09:52:57;100419.0;;;17.57;83.03
61628;BME280;55193;52.102;5.242;2022-10-24T09:56:13;100427.0;;;17.55;83.11
61628;BME280;55193;52.102;5.242;2022-10-24T09:57:52;100435.0;;;17.68;82.95
61628;BME280;55193;52.102;5.242;2022-10-24T09:59:32;100455.0;;;17.75;82.55
61628;BME280;55193;52.102;5.242;2022-10-24T10:02:58;100439.0;;;17.62;82.23
61628;BME280;55193;52.102;5.242;2022-10-24T10:04:38;100434.0;;;17.62;82.05
61628;BME280;55193;52.102;5.242;2022-10-24T10:06:18;100434.0;;;17.72;81.86
61628;BME280;55193;52.102;5.242;2022-10-24T10:07:55;100436.0;;;17.93;81.47
61628;BME280;55193;52.102;5.242;2022-10-24T10:11:11;100452.0;;;17.98;80.69
61628;BME280;55193;52.102;5.242;2022-10-24T10:12:55;100453.0;;;17.91;80.97
61628;BME280;55193;52.102;5.242;2022-10-24T10:14:39;100450.0;;;17.86;81.56
61628;BME280;55193;52.102;5.242;2022-10-24T10:16:21;100445.0;;;17.77;81.48
61628;BME280;55193;52.102;5.242;2022-10-24T10:19:44;100461.0;;;17.8;81.19
61628;BME280;55193;52.102;5.242;2022-10-24T10:21:22;100462.0;;;17.86;81.33
61628;BME280;55193;52.102;5.242;2022-10-24T10:23:16;100461.0;;;17.91;81.22
61628;BME280;55193;52.102;5.242;2022-10-24T10:24:58;100465.0;;;17.88;80.77
61628;BME280;55193;52.102;5.242;2022-10-24T10:26:41;100467.0;;;17.93;81.16
61628;BME280;55193;52.102;5.242;2022-10-24T10:30:17;100455.0;;;17.95;80.36
61628;BME280;55193;52.102;5.242;2022-10-24T10:32:01;100468.0;;;18.0;79.5
61628;BME280;55193;52.102;5.242;2022-10-24T10:33:44;100473.0;;;18.02;79.55
61628;BME280;55193;52.102;5.242;2022-10-24T10:35:33;100478.0;;;18.16;78.97
61628;BME280;55193;52.102;5.242;2022-10-24T10:37:22;100486.0;;;18.2;79.33
61628;BME280;55193;52.102;5.242;2022-10-24T10:39:15;100478.0;;;18.25;79.86
61628;BME280;55193;52.102;5.242;2022-10-24T10:42:53;100487.0;;;18.34;78.77
61628;BME280;55193;52.102;5.242;2022-10-24T10:44:57;100483.0;;;18.36;78.02
61628;BME280;55193;52.102;5.242;2022-10-24T10:46:42;100493.0;;;18.38;77.66
61628;BME280;55193;52.102;5.242;2022-10-24T10:48:37;100502.0;;;18.29;77.97
61628;BME280;55193;52.102;5.242;2022-10-24T10:50:26;100497.0;;;18.31;78.66
61628;BME280;55193;52.102;5.242;2022-10-24T10:52:12;100511.0;;;18.46;78.24
61628;BME280;55193;52.102;5.242;2022-10-24T10:53:57;100497.0;;;18.45;77.72
61628;BME280;55193;52.102;5.242;2022-10-24T10:57:29;100502.0;;;18.55;77.42
61628;BME280;55193;52.102;5.242;2022-10-24T10:59:21;100524.0;;;18.7;76.94
61628;BME280;55193;52.102;5.242;2022-10-24T11:01:09;100526.0;;;18.7;77.05
61628;BME280;55193;52.102;5.242;2022-10-24T11:03:06;100515.0;;;18.5;76.23
61628;BME280;55193;52.102;5.242;2022-10-24T11:04:53;100527.0;;;18.55;76.47
61628;BME280;55193;52.102;5.242;2022-10-24T11:06:40;100532.0;;;18.53;76.86
61628;BME280;55193;52.102;5.242;2022-10-24T11:08:32;100540.0;;;18.45;77.23